Pagina principală
METAR-TAF:

METAR-TAF

Aeroporturi :

Luganville, Espiritu Santo, Vanuatu

Latitudine: 15-31S, longitudine: 167-13E, elevație: 41 m

Observații meteo curente

Raportul a fost făcut în urmă cu 1 oră și 20 de minute, la 12:00 UTC
Vânt 3 kt de la Est
Temperatură 25°C
Umiditate 94%
Presiune 1013 hPa
Vizibilitate de 10 km sau mai mult
Nori împrăștiați la o înălțime de 2500 picior

METAR: NVSS 281200Z 08003KT 9999 SCT025 25/24 Q1013

Ora: 00:20 (13:20 UTC)

Prognoză

Raportul a fost făcut în urmă cu 2 ore și 20 de minute, la 11:00 UTC
Prognoză valabilă de la 28 ora 12 UTC la 29 ora 12 UTC
Vânt 2 kt din direcții variabile
Vizibilitate de 10 km sau mai mult
Nori împrăștiați la o înălțime de 2000 picior

TAF: NVSS 281100Z 2812/2912 VRB02KT 9999 SCT020

Observații și prognoze meteo pentru peste 4.000 de aeroporturi (rapoarte METAR și TAF).

Stațiile disponibile sunt reprezentate pe hartă prin puncte galbene și roșii.

Țineți indicatorul mouse-ului pe punctul dorit pentru a vedea denumirea stației.

Apoi, faceți clic pentru a vedea observațiile și prognozele meteorologice.

Pentru a schimba harta: Pentru mărire, faceți clic pe butoanele verzi cu cruce neagră; pentru micșorare, pe butonul verde cu o liniuță; pentru hărți învecinate, pe săgețile verzi.


METAR-TAF: